Time;durP1;ratioP1;P1;durP2;ratioP2;P2;SDS_P1;SDS_P2;PMS_P1;PMS_P2;Temp;Humidity;BMP_temperature;BMP_pressure;BME280_temperature;BME280_humidity;BME280_pressure;Samples;Min_cycle;Max_cycle;Signal;HPM_P1;HPM_P2
2024/02/25 00:00:26;;;;;;;7.30;4.50;;;;;;;3.34;100.00;100248.66;6103182;23;20178;-71
2024/02/25 00:02:55;;;;;;;9.90;4.70;;;;;;;3.39;100.00;100249.38;6103671;23;20659;-71
2024/02/25 00:05:21;;;;;;;9.73;4.57;;;;;;;3.45;100.00;100257.88;6104046;23;20531;-71
2024/02/25 00:07:49;;;;;;;9.27;5.07;;;;;;;3.51;100.00;100249.69;6103637;23;20499;-71
2024/02/25 00:10:15;;;;;;;10.63;5.30;;;;;;;3.58;100.00;100254.53;6104031;23;20174;-72
2024/02/25 00:12:42;;;;;;;8.23;4.97;;;;;;;3.66;100.00;100254.66;6103958;23;20193;-71
2024/02/25 00:15:09;;;;;;;13.70;6.90;;;;;;;3.74;100.00;100267.03;6103710;23;20170;-72
2024/02/25 00:17:35;;;;;;;11.73;6.47;;;;;;;3.82;100.00;100263.75;6105268;23;20166;-72
2024/02/25 00:20:01;;;;;;;12.10;6.27;;;;;;;3.89;100.00;100271.97;6105343;23;20651;-72
2024/02/25 00:22:29;;;;;;;8.57;5.07;;;;;;;3.96;100.00;100266.38;6105222;23;20528;-71
2024/02/25 00:24:56;;;;;;;12.70;5.83;;;;;;;4.05;100.00;100269.88;6070310;23;20177;-72
2024/02/25 00:27:23;;;;;;;8.17;5.17;;;;;;;4.12;100.00;100270.25;6105650;23;20162;-71
2024/02/25 00:29:49;;;;;;;13.13;6.37;;;;;;;4.18;100.00;100269.88;6069380;23;20171;-72
2024/02/25 00:32:15;;;;;;;10.83;5.77;;;;;;;4.26;100.00;100269.19;6068310;23;20202;-72
2024/02/25 00:34:42;;;;;;;12.27;6.30;;;;;;;4.33;100.00;100276.66;6104253;23;20245;-72
2024/02/25 00:37:08;;;;;;;10.03;5.70;;;;;;;4.40;100.00;100285.66;6104235;23;20245;-72
2024/02/25 00:39:34;;;;;;;8.63;5.43;;;;;;;4.45;100.00;100276.94;6104184;23;20659;-72
2024/02/25 00:42:02;;;;;;;9.43;5.40;;;;;;;4.52;100.00;100274.72;6068235;23;20208;-72
2024/02/25 00:44:33;;;;;;;9.43;6.10;;;;;;;4.56;100.00;100268.59;6068646;23;20257;-72
2024/02/25 00:46:59;;;;;;;10.23;6.73;;;;;;;4.61;100.00;100265.88;6069163;23;20249;-72
2024/02/25 00:49:26;;;;;;;8.77;4.87;;;;;;;4.66;100.00;100262.41;6104490;23;20170;-72
2024/02/25 00:51:53;;;;;;;6.93;4.10;;;;;;;4.71;100.00;100273.50;6103987;23;20190;-72
2024/02/25 00:54:21;;;;;;;7.73;4.37;;;;;;;4.77;100.00;100268.97;6095313;23;20651;-72
2024/02/25 00:56:48;;;;;;;7.07;4.00;;;;;;;4.81;100.00;100262.06;6104545;23;20170;-71
2024/02/25 00:59:18;;;;;;;5.47;3.80;;;;;;;4.84;100.00;100264.88;6069538;23;20190;-72
2024/02/25 01:01:45;;;;;;;6.07;3.57;;;;;;;4.90;100.00;100262.91;6104562;23;20269;-72
2024/02/25 01:04:11;;;;;;;4.83;3.60;;;;;;;4.93;100.00;100268.31;6104261;23;20205;-71
2024/02/25 01:06:39;;;;;;;5.87;3.83;;;;;;;4.96;100.00;100272.97;6104348;23;20411;-71
2024/02/25 01:09:37;;;;;;;5.90;3.90;;;;;;;5.00;100.00;100266.09;6094201;23;20165;-71
2024/02/25 01:12:06;;;;;;;7.60;4.20;;;;;;;5.02;100.00;100269.16;6103254;23;20194;-71
2024/02/25 01:14:53;;;;;;;5.03;3.60;;;;;;;5.05;100.00;100268.59;6103175;23;20170;-71
2024/02/25 01:17:25;;;;;;;7.30;4.10;;;;;;;5.07;100.00;100271.66;6103208;23;20170;-71
2024/02/25 01:22:36;;;;;;;5.30;3.20;;;;;;;5.08;100.00;100264.59;6089792;23;20279;-71
2024/02/25 01:25:03;;;;;;;5.70;3.83;;;;;;;5.06;100.00;100259.66;6104380;23;20192;-71
2024/02/25 01:27:30;;;;;;;5.10;3.57;;;;;;;5.04;100.00;100264.44;6104295;23;20194;-71
2024/02/25 01:29:57;;;;;;;4.00;3.30;;;;;;;5.00;100.00;100260.06;6069231;23;20176;-71
2024/02/25 01:32:24;;;;;;;5.87;3.20;;;;;;;4.96;100.00;100269.56;6104261;23;20265;-71
2024/02/25 01:34:50;;;;;;;5.00;3.23;;;;;;;4.90;100.00;100261.06;6104707;23;20175;-72
2024/02/25 01:37:17;;;;;;;6.30;3.60;;;;;;;4.84;100.00;100266.69;6105227;23;20194;-71
2024/02/25 01:39:43;;;;;;;7.40;3.43;;;;;;;4.76;100.00;100264.81;6105404;23;20641;-71
2024/02/25 01:42:09;;;;;;;7.17;3.90;;;;;;;4.68;100.00;100258.41;6105551;23;20650;-72
2024/02/25 01:44:49;;;;;;;5.47;3.40;;;;;;;4.60;100.00;100256.50;6105101;23;20202;-71
2024/02/25 01:47:16;;;;;;;5.30;3.03;;;;;;;4.54;100.00;100252.44;6104782;23;20536;-71
2024/02/25 01:49:43;;;;;;;5.63;3.90;;;;;;;4.47;100.00;100252.06;6103942;23;20626;-72
2024/02/25 01:52:10;;;;;;;6.37;4.23;;;;;;;4.41;100.00;100249.84;6103877;23;20254;-71
2024/02/25 01:54:36;;;;;;;7.07;4.30;;;;;;;4.35;100.00;100254.38;6104021;23;20180;-72
2024/02/25 01:57:03;;;;;;;6.50;3.63;;;;;;;4.27;100.00;100242.00;6104116;23;20171;-71
2024/02/25 01:59:30;;;;;;;7.63;4.17;;;;;;;4.21;100.00;100251.03;6068330;23;20190;-71
2024/02/25 02:01:57;;;;;;;6.93;3.90;;;;;;;4.16;100.00;100250.34;6068352;23;20222;-71
2024/02/25 02:04:25;;;;;;;6.20;3.53;;;;;;;4.09;100.00;100236.91;6104464;23;20173;-71
2024/02/25 02:06:51;;;;;;;6.37;3.73;;;;;;;4.04;100.00;100245.59;6068342;23;20170;-71
2024/02/25 02:09:18;;;;;;;7.20;3.97;;;;;;;3.97;100.00;100236.59;6068354;23;20162;-71
2024/02/25 02:11:56;;;;;;;6.03;4.30;;;;;;;3.92;100.00;100241.91;6103987;23;20190;-71
2024/02/25 02:14:22;;;;;;;6.63;4.20;;;;;;;3.86;100.00;100243.06;6104325;23;20249;-71
2024/02/25 02:16:49;;;;;;;5.23;3.70;;;;;;;3.81;100.00;100237.94;6103218;23;20247;-71
2024/02/25 02:19:15;;;;;;;5.90;4.13;;;;;;;3.75;100.00;100237.25;6104150;23;20193;-72
2024/02/25 02:21:43;;;;;;;5.77;3.80;;;;;;;3.71;100.00;100238.09;6104352;23;20257;-71
2024/02/25 02:24:09;;;;;;;6.47;4.10;;;;;;;3.66;100.00;100227.75;6104347;23;20166;-72
2024/02/25 02:26:38;;;;;;;8.07;4.30;;;;;;;3.61;100.00;100225.22;6104079;23;20181;-72
2024/02/25 02:29:05;;;;;;;7.13;3.93;;;;;;;3.58;100.00;100217.97;6104343;23;20536;-71
2024/02/25 02:31:31;;;;;;;4.90;3.80;;;;;;;3.54;100.00;100228.22;6103979;23;20539;-72
2024/02/25 02:33:57;;;;;;;7.20;4.30;;;;;;;3.50;100.00;100219.41;6103839;23;20173;-72
2024/02/25 02:36:24;;;;;;;6.43;4.23;;;;;;;3.48;100.00;100226.75;6103884;23;20503;-72
2024/02/25 02:38:51;;;;;;;6.73;4.27;;;;;;;3.45;100.00;100219.50;6103805;23;20627;-72
2024/02/25 02:41:22;;;;;;;8.40;4.83;;;;;;;3.42;100.00;100224.53;6104681;23;20173;-71
2024/02/25 02:43:48;;;;;;;6.87;4.60;;;;;;;3.39;100.00;100230.31;6094077;23;20206;-72
2024/02/25 02:46:15;;;;;;;5.73;4.40;;;;;;;3.37;100.00;100227.22;6104284;23;20170;-70
2024/02/25 02:48:41;;;;;;;6.17;3.93;;;;;;;3.35;100.00;100231.94;6103988;23;20178;-71
2024/02/25 02:51:09;;;;;;;7.37;4.90;;;;;;;3.31;100.00;100223.91;6103615;23;20671;-71
2024/02/25 02:53:35;;;;;;;6.00;4.50;;;;;;;3.28;100.00;100229.72;6103818;23;20162;-71
2024/02/25 02:56:03;;;;;;;8.60;4.40;;;;;;;3.24;100.00;100220.91;6104466;23;20253;-72
2024/02/25 02:58:30;;;;;;;7.03;4.27;;;;;;;3.20;100.00;100224.34;6104057;23;20178;-72
2024/02/25 03:00:56;;;;;;;6.63;4.80;;;;;;;3.16;100.00;100231.97;6103762;23;20194;-72
2024/02/25 03:03:23;;;;;;;8.20;4.30;;;;;;;3.10;100.00;100225.28;6104109;23;20216;-72
2024/02/25 03:05:49;;;;;;;6.73;4.03;;;;;;;3.06;100.00;100233.97;6103905;23;20303;-72
2024/02/25 03:08:15;;;;;;;5.83;4.10;;;;;;;2.98;100.00;100219.75;6104316;23;20166;-71
2024/02/25 03:10:42;;;;;;;7.70;4.57;;;;;;;2.93;100.00;100234.69;6104081;23;20168;-71
2024/02/25 03:13:10;;;;;;;6.57;4.10;;;;;;;2.87;100.00;100233.22;6104111;23;20190;-72
2024/02/25 03:15:39;;;;;;;6.57;4.27;;;;;;;2.81;100.00;100231.72;6104200;23;20176;-72
2024/02/25 03:18:05;;;;;;;6.27;4.30;;;;;;;2.74;100.00;100232.06;6104122;23;20174;-71
2024/02/25 03:20:31;;;;;;;6.93;4.27;;;;;;;2.70;100.00;100227.72;6068617;23;20193;-71
2024/02/25 03:22:58;;;;;;;7.90;4.63;;;;;;;2.64;100.00;100236.66;6094294;23;20566;-71
2024/02/25 03:25:24;;;;;;;8.27;4.77;;;;;;;2.58;100.00;100235.94;6104411;23;20169;-71
2024/02/25 03:27:51;;;;;;;5.50;3.77;;;;;;;2.55;100.00;100230.53;6104228;23;20174;-71
2024/02/25 03:30:18;;;;;;;8.53;4.60;;;;;;;2.52;100.00;100233.69;6104565;23;20544;-71
2024/02/25 03:32:45;;;;;;;8.87;4.23;;;;;;;2.48;100.00;100228.25;6104021;23;20527;-71
2024/02/25 03:35:11;;;;;;;6.87;4.67;;;;;;;2.47;100.00;100223.31;6103906;23;20197;-71
2024/02/25 03:37:39;;;;;;;6.60;4.80;;;;;;;2.48;100.00;100235.28;6104277;23;20204;-71
2024/02/25 03:40:07;;;;;;;9.90;5.03;;;;;;;2.48;100.00;100223.06;6104573;23;20192;-71
2024/02/25 03:42:33;;;;;;;11.17;5.27;;;;;;;2.50;100.00;100230.59;6103902;23;20190;-71
2024/02/25 03:44:59;;;;;;;8.30;5.43;;;;;;;2.53;100.00;100228.19;6103897;23;20205;-71
2024/02/25 03:47:27;;;;;;;6.67;4.60;;;;;;;2.58;100.00;100224.75;6103703;23;20173;-71
2024/02/25 03:49:53;;;;;;;8.03;5.40;;;;;;;2.61;100.00;100227.59;6104650;23;20665;-71
2024/02/25 03:52:20;;;;;;;8.17;5.27;;;;;;;2.65;100.00;100233.75;6070285;23;20538;-71
2024/02/25 03:54:46;;;;;;;7.67;5.60;;;;;;;2.71;100.00;100231.88;6105842;23;20167;-71
2024/02/25 03:57:13;;;;;;;8.73;6.00;;;;;;;2.73;100.00;100238.34;6105849;23;20174;-71
2024/02/25 03:59:39;;;;;;;7.60;4.93;;;;;;;2.78;100.00;100237.50;6105437;23;20216;-71
2024/02/25 04:02:05;;;;;;;8.23;5.57;;;;;;;2.83;100.00;100242.63;6105355;23;20530;-71
2024/02/25 04:04:33;;;;;;;9.10;5.43;;;;;;;2.85;100.00;100241.31;6105255;23;20619;-71
2024/02/25 04:06:59;;;;;;;6.80;4.87;;;;;;;2.89;100.00;100236.28;6105115;23;20162;-71
2024/02/25 04:09:26;;;;;;;8.60;5.37;;;;;;;2.91;100.00;100232.34;6105094;23;20245;-71
2024/02/25 04:11:52;;;;;;;8.97;5.33;;;;;;;2.94;100.00;100231.78;6104952;23;20512;-71
2024/02/25 04:14:18;;;;;;;6.87;5.03;;;;;;;2.97;100.00;100233.06;6104665;23;20503;-71
2024/02/25 04:16:45;;;;;;;9.33;6.13;;;;;;;3.01;100.00;100228.84;6104927;23;20611;-71
2024/02/25 04:19:11;;;;;;;7.67;4.93;;;;;;;3.01;100.00;100224.38;6105413;23;20729;-71
2024/02/25 04:21:41;;;;;;;7.70;5.40;;;;;;;3.07;100.00;100230.31;6104726;23;20190;-71
2024/02/25 04:24:07;;;;;;;7.90;5.73;;;;;;;3.08;100.00;100224.03;6105343;23;20177;-71
2024/02/25 04:26:34;;;;;;;9.17;5.73;;;;;;;3.11;100.00;100224.22;6104977;23;20257;-71
2024/02/25 04:29:00;;;;;;;8.10;5.60;;;;;;;3.15;100.00;100225.22;6105445;23;20171;-71
2024/02/25 04:31:26;;;;;;;7.40;5.40;;;;;;;3.19;100.00;100220.19;6105238;23;20193;-71
2024/02/25 04:33:53;;;;;;;9.63;5.70;;;;;;;3.20;100.00;100222.53;6104980;23;20168;-71
2024/02/25 04:36:19;;;;;;;9.87;5.90;;;;;;;3.24;100.00;100218.28;6104293;23;20169;-71
2024/02/25 04:38:47;;;;;;;9.03;6.07;;;;;;;3.29;100.00;100215.59;6104384;23;20686;-71
2024/02/25 04:41:13;;;;;;;7.50;5.70;;;;;;;3.33;100.00;100208.72;6104221;23;20181;-71
2024/02/25 04:43:42;;;;;;;8.10;5.37;;;;;;;3.37;100.00;100214.94;6094711;23;20186;-71
2024/02/25 04:46:09;;;;;;;9.30;6.37;;;;;;;3.42;100.00;100212.25;6104392;23;20172;-71
2024/02/25 04:48:37;;;;;;;7.43;4.87;;;;;;;3.48;100.00;100215.56;6104421;23;20170;-71
2024/02/25 04:51:04;;;;;;;8.27;5.30;;;;;;;3.51;100.00;100207.91;6068686;23;20551;-71
2024/02/25 04:53:30;;;;;;;9.77;6.20;;;;;;;3.55;100.00;100213.31;6104490;23;20194;-71
2024/02/25 04:56:00;;;;;;;8.47;5.93;;;;;;;3.58;100.00;100205.69;6104259;23;20273;-71
2024/02/25 04:58:26;;;;;;;10.33;6.03;;;;;;;3.61;100.00;100205.13;6104188;23;20193;-71
2024/02/25 05:00:52;;;;;;;8.57;5.77;;;;;;;3.64;100.00;100212.38;6104119;23;20200;-71
2024/02/25 05:03:32;;;;;;;9.57;6.77;;;;;;;3.67;100.00;100211.00;6103762;23;20193;-71
2024/02/25 05:06:27;;;;;;;9.07;5.93;;;;;;;3.71;100.00;100219.81;6104739;23;20608;-71
2024/02/25 05:09:04;;;;;;;8.97;5.53;;;;;;;3.71;100.00;100212.00;6105298;23;20166;-71
2024/02/25 05:11:45;;;;;;;8.83;5.53;;;;;;;3.72;100.00;100214.31;6104585;23;20193;-71
2024/02/25 05:14:21;;;;;;;8.43;5.90;;;;;;;3.72;100.00;100205.72;6104825;23;20366;-71
2024/02/25 05:17:01;;;;;;;9.80;6.00;;;;;;;3.73;100.00;100213.25;6104424;23;20169;-71
2024/02/25 05:19:36;;;;;;;8.50;5.87;;;;;;;3.74;100.00;100206.97;6104616;23;20162;-71
2024/02/25 05:22:09;;;;;;;7.57;4.77;;;;;;;3.75;100.00;100216.38;6104618;23;20212;-71
2024/02/25 05:24:53;;;;;;;7.10;5.47;;;;;;;3.76;100.00;100217.13;6104423;23;20181;-71
2024/02/25 05:27:42;;;;;;;7.33;5.10;;;;;;;3.76;100.00;100214.50;6092213;23;20170;-71
2024/02/25 05:30:25;;;;;;;8.83;5.03;;;;;;;3.78;100.00;100217.63;6067919;23;20201;-71
2024/02/25 05:33:06;;;;;;;7.93;5.33;;;;;;;3.78;100.00;100213.16;6103950;23;20186;-71
2024/02/25 05:35:47;;;;;;;9.87;5.63;;;;;;;3.80;100.00;100215.50;6102730;23;20210;-71
2024/02/25 05:38:16;;;;;;;7.40;5.27;;;;;;;3.81;100.00;100220.44;6103734;23;20170;-71
2024/02/25 05:40:43;;;;;;;9.27;5.50;;;;;;;3.81;100.00;100230.88;6104046;23;20194;-71
2024/02/25 05:43:11;;;;;;;9.37;5.63;;;;;;;3.82;100.00;100224.59;6103902;23;20194;-72
2024/02/25 05:45:37;;;;;;;8.13;5.57;;;;;;;3.83;100.00;100225.38;6103815;23;20257;-72
2024/02/25 05:48:04;;;;;;;7.70;5.27;;;;;;;3.83;100.00;100218.28;6104208;23;20564;-72
2024/02/25 05:50:30;;;;;;;9.10;5.57;;;;;;;3.85;100.00;100223.22;6104312;23;20232;-72
2024/02/25 05:52:57;;;;;;;7.77;5.27;;;;;;;3.86;100.00;100222.16;6068824;23;20682;-72
2024/02/25 05:55:26;;;;;;;7.63;5.10;;;;;;;3.86;100.00;100225.56;6068791;23;20178;-72
2024/02/25 05:57:53;;;;;;;8.27;5.67;;;;;;;3.86;100.00;100222.94;6104370;23;20740;-72
2024/02/25 06:00:23;;;;;;;8.17;5.40;;;;;;;3.87;100.00;100215.88;6104153;23;20273;-72
2024/02/25 06:02:50;;;;;;;8.10;4.80;;;;;;;3.87;100.00;100223.72;6103984;23;20213;-72
2024/02/25 06:05:17;;;;;;;6.37;4.73;;;;;;;3.89;100.00;100219.00;6104270;23;20619;-71
2024/02/25 06:07:43;;;;;;;7.73;5.73;;;;;;;3.88;100.00;100233.88;6103189;23;20166;-72
2024/02/25 06:10:10;;;;;;;7.70;5.40;;;;;;;3.90;100.00;100230.97;6103986;23;20607;-71
2024/02/25 06:12:38;;;;;;;7.67;5.40;;;;;;;3.92;100.00;100221.00;6102747;23;20193;-71
2024/02/25 06:15:07;;;;;;;8.07;5.10;;;;;;;3.94;100.00;100230.09;6102714;23;20172;-71
2024/02/25 06:17:34;;;;;;;6.77;5.07;;;;;;;3.95;100.00;100221.19;6102451;23;20608;-71
2024/02/25 06:20:01;;;;;;;9.50;5.93;;;;;;;3.98;100.00;100222.44;6102666;23;20290;-71
2024/02/25 06:22:27;;;;;;;8.37;5.50;;;;;;;4.01;100.00;100224.50;6102176;23;20502;-71
2024/02/25 06:24:53;;;;;;;9.87;5.57;;;;;;;4.05;100.00;100220.25;6102491;23;20166;-71
2024/02/25 06:27:20;;;;;;;8.50;5.97;;;;;;;4.07;100.00;100224.13;6102331;23;20175;-71
2024/02/25 06:29:46;;;;;;;7.93;5.47;;;;;;;4.09;100.00;100227.19;6102466;23;20250;-71
2024/02/25 06:32:13;;;;;;;9.63;5.80;;;;;;;4.12;100.00;100226.63;6102471;23;20269;-71
2024/02/25 06:34:40;;;;;;;9.27;5.77;;;;;;;4.15;100.00;100225.28;6101978;23;20171;-71
2024/02/25 06:37:07;;;;;;;10.43;6.13;;;;;;;4.15;100.00;100220.81;6102170;23;20197;-71
2024/02/25 06:39:33;;;;;;;7.77;5.90;;;;;;;4.18;100.00;100232.50;6103334;23;20258;-71
2024/02/25 06:41:59;;;;;;;8.00;5.77;;;;;;;4.18;100.00;100228.06;6101945;23;20200;-71
2024/02/25 06:44:28;;;;;;;7.90;6.17;;;;;;;4.21;100.00;100237.16;6102575;23;20185;-71
2024/02/25 06:46:57;;;;;;;10.20;5.87;;;;;;;4.21;100.00;100232.72;6102324;23;20175;-71
2024/02/25 06:49:27;;;;;;;9.07;5.70;;;;;;;4.23;100.00;100246.28;6102594;23;20167;-71
2024/02/25 06:51:55;;;;;;;8.57;5.80;;;;;;;4.25;100.00;100238.91;6102182;23;20209;-71
2024/02/25 06:54:21;;;;;;;12.13;6.33;;;;;;;4.27;100.00;100233.38;6102072;23;20174;-71
2024/02/25 06:56:48;;;;;;;9.70;6.37;;;;;;;4.28;100.00;100230.50;6101294;23;20170;-71
2024/02/25 06:59:14;;;;;;;9.17;5.60;;;;;;;4.29;100.00;100228.63;6102531;23;20173;-71
2024/02/25 07:01:41;;;;;;;8.20;5.40;;;;;;;4.32;100.00;100220.22;6101916;23;20204;-71
2024/02/25 07:04:07;;;;;;;7.67;5.50;;;;;;;4.33;100.00;100219.94;6102744;23;20170;-71
2024/02/25 07:06:34;;;;;;;7.93;5.30;;;;;;;4.35;100.00;100223.03;6066225;23;20180;-71
2024/02/25 07:09:04;;;;;;;8.87;5.70;;;;;;;4.36;100.00;100224.56;6101930;23;20245;-71
2024/02/25 07:11:32;;;;;;;8.53;6.10;;;;;;;4.38;100.00;100219.84;6102254;23;20690;-71
2024/02/25 07:13:58;;;;;;;7.53;5.03;;;;;;;4.41;100.00;100224.47;6066534;23;20166;-71
2024/02/25 07:16:25;;;;;;;8.43;5.83;;;;;;;4.45;100.00;100212.34;6102294;23;20171;-71
2024/02/25 07:18:51;;;;;;;9.60;5.83;;;;;;;4.50;100.00;100204.41;6102175;23;20226;-71
2024/02/25 07:21:17;;;;;;;7.00;5.47;;;;;;;4.55;100.00;100208.75;6102396;23;20201;-71
2024/02/25 07:23:44;;;;;;;9.43;6.93;;;;;;;4.61;100.00;100207.59;6100943;23;20171;-71
2024/02/25 07:26:13;;;;;;;13.27;6.57;;;;;;;4.65;100.00;100198.06;6102741;23;20172;-71
2024/02/25 07:28:41;;;;;;;9.10;6.60;;;;;;;4.70;100.00;100205.81;6102791;23;20167;-71
2024/02/25 07:31:13;;;;;;;8.77;6.50;;;;;;;4.74;100.00;100191.84;6102685;23;20692;-71
2024/02/25 07:33:39;;;;;;;9.83;6.77;;;;;;;4.80;100.00;100187.28;6103486;23;20558;-72
2024/02/25 07:36:09;;;;;;;14.37;7.97;;;;;;;4.86;100.00;100186.88;6102539;23;20559;-71
2024/02/25 07:38:36;;;;;;;12.63;8.20;;;;;;;4.94;100.00;100193.22;6056336;23;20221;-72
2024/02/25 07:41:02;;;;;;;12.97;7.60;;;;;;;5.02;100.00;100195.91;6066399;23;20193;-72
2024/02/25 07:43:30;;;;;;;11.03;7.07;;;;;;;5.13;100.00;100197.19;6102129;23;20173;-71
2024/02/25 07:45:57;;;;;;;9.47;6.20;;;;;;;5.23;100.00;100199.56;6102004;23;20248;-71
2024/02/25 07:48:24;;;;;;;9.83;6.00;;;;;;;5.35;100.00;100191.19;6102191;23;20166;-72
2024/02/25 07:50:50;;;;;;;8.03;5.57;;;;;;;5.48;100.00;100192.94;6101521;23;20166;-71
2024/02/25 07:53:16;;;;;;;13.73;5.67;;;;;;;5.60;100.00;100187.94;6102051;23;20232;-71
2024/02/25 07:55:43;;;;;;;7.07;5.00;;;;;;;5.72;100.00;100194.16;6101485;23;20181;-72
2024/02/25 07:58:09;;;;;;;5.53;4.50;;;;;;;5.84;100.00;100188.34;6101542;23;20173;-72
2024/02/25 08:00:37;;;;;;;5.97;4.10;;;;;;;5.95;100.00;100189.66;6100814;23;20248;-71
2024/02/25 08:03:04;;;;;;;5.43;4.40;;;;;;;6.05;100.00;100190.13;6101308;23;20269;-72
2024/02/25 08:05:31;;;;;;;5.83;4.13;;;;;;;6.17;100.00;100181.69;6100501;23;20174;-72
2024/02/25 08:07:57;;;;;;;6.97;4.27;;;;;;;6.30;100.00;100180.75;6100856;23;20177;-72
2024/02/25 08:10:24;;;;;;;5.13;3.77;;;;;;;6.38;100.00;100186.00;6100050;23;20170;-72
2024/02/25 08:12:51;;;;;;;6.63;4.10;;;;;;;6.44;100.00;100174.31;6098850;23;20194;-72
2024/02/25 08:15:17;;;;;;;5.13;3.70;;;;;;;6.53;100.00;100182.19;6100723;23;20504;-71
2024/02/25 08:17:44;;;;;;;6.13;4.20;;;;;;;6.57;100.00;100178.63;6100789;23;20174;-72
2024/02/25 08:20:11;;;;;;;5.67;3.93;;;;;;;6.63;100.00;100174.78;6101011;23;20204;-72
2024/02/25 08:22:39;;;;;;;7.13;4.10;;;;;;;6.67;100.00;100178.34;6100513;23;20197;-72
2024/02/25 08:25:06;;;;;;;5.73;3.70;;;;;;;6.71;100.00;100181.09;6100727;23;20177;-72
2024/02/25 08:27:33;;;;;;;4.47;3.70;;;;;;;6.74;100.00;100185.75;6100632;23;20274;-72
2024/02/25 08:29:59;;;;;;;6.77;4.47;;;;;;;6.76;100.00;100186.97;6100830;23;20665;-72
2024/02/25 08:32:26;;;;;;;6.67;4.00;;;;;;;6.76;100.00;100188.81;6100910;23;20257;-72
2024/02/25 08:34:55;;;;;;;4.63;4.07;;;;;;;6.74;100.00;100193.63;6100172;23;20171;-72
2024/02/25 08:37:22;;;;;;;5.27;4.13;;;;;;;6.72;100.00;100186.03;6101359;23;20254;-71
2024/02/25 08:39:49;;;;;;;6.13;4.40;;;;;;;6.68;100.00;100179.88;6102178;23;20177;-71
2024/02/25 08:42:15;;;;;;;6.27;4.43;;;;;;;6.67;100.00;100183.56;6067221;23;20220;-71
2024/02/25 08:44:42;;;;;;;6.03;4.43;;;;;;;6.63;100.00;100185.25;6101301;23;20205;-71
2024/02/25 08:47:08;;;;;;;6.60;4.40;;;;;;;6.62;100.00;100183.72;6102717;23;20566;-71
2024/02/25 08:49:37;;;;;;;6.27;4.63;;;;;;;6.61;100.00;100184.81;6102752;23;20170;-71
2024/02/25 08:52:05;;;;;;;7.37;5.27;;;;;;;6.59;100.00;100191.44;6102582;23;20555;-71
2024/02/25 08:54:33;;;;;;;6.07;4.60;;;;;;;6.57;100.00;100186.50;6102427;23;20178;-71
2024/02/25 08:56:59;;;;;;;7.47;4.50;;;;;;;6.57;100.00;100173.38;6102478;23;20500;-72
2024/02/25 08:59:26;;;;;;;7.20;4.73;;;;;;;6.59;100.00;100173.88;6103139;23;20174;-72
2024/02/25 09:01:52;;;;;;;8.43;4.80;;;;;;;6.58;100.00;100172.31;6102415;23;20194;-72
2024/02/25 09:04:19;;;;;;;5.93;4.47;;;;;;;6.63;100.00;100169.53;6103005;23;20216;-71
2024/02/25 09:06:46;;;;;;;6.67;4.50;;;;;;;6.69;100.00;100164.91;6101941;23;20167;-71
2024/02/25 09:09:14;;;;;;;6.37;4.80;;;;;;;6.72;100.00;100164.28;6102910;23;20193;-71
2024/02/25 09:11:41;;;;;;;7.23;4.57;;;;;;;6.78;100.00;100160.44;6102508;23;20189;-72
2024/02/25 09:14:07;;;;;;;6.37;4.50;;;;;;;6.82;100.00;100161.34;6102712;23;20173;-72
2024/02/25 09:16:34;;;;;;;5.97;4.43;;;;;;;6.88;100.00;100155.63;6100581;23;20182;-71
2024/02/25 09:19:00;;;;;;;8.87;5.20;;;;;;;6.96;100.00;100152.22;6066333;23;20527;-71
2024/02/25 09:21:26;;;;;;;6.43;4.73;;;;;;;7.05;100.00;100152.22;6101246;23;20281;-71
2024/02/25 09:23:53;;;;;;;6.47;4.83;;;;;;;7.15;100.00;100154.50;6101724;23;20166;-72
2024/02/25 09:26:22;;;;;;;7.47;4.93;;;;;;;7.25;100.00;100156.81;6100232;23;20245;-71
2024/02/25 09:28:48;;;;;;;7.93;5.17;;;;;;;7.35;100.00;100151.97;6101324;23;20174;-71
2024/02/25 09:31:18;;;;;;;6.07;4.30;;;;;;;7.46;100.00;100145.28;6101203;23;20168;-71
2024/02/25 09:33:45;;;;;;;7.33;5.13;;;;;;;7.56;100.00;100141.56;6101471;23;20175;-71
2024/02/25 09:36:11;;;;;;;5.40;4.20;;;;;;;7.65;100.00;100135.16;6101083;23;20508;-71
2024/02/25 09:38:38;;;;;;;7.00;4.27;;;;;;;7.74;100.00;100135.13;6101176;23;20173;-71
2024/02/25 09:41:05;;;;;;;8.63;4.50;;;;;;;7.83;100.00;100138.50;6100313;23;20192;-71
2024/02/25 09:43:33;;;;;;;6.03;4.00;;;;;;;7.93;100.00;100140.75;6101369;23;20687;-71
2024/02/25 09:46:01;;;;;;;4.57;4.03;;;;;;;8.01;100.00;100145.97;6100340;23;20163;-71
2024/02/25 09:48:27;;;;;;;5.63;4.20;;;;;;;8.10;100.00;100149.31;6102045;23;20175;-72
2024/02/25 09:50:54;;;;;;;5.90;4.33;;;;;;;8.18;100.00;100148.47;6100716;23;20172;-71
2024/02/25 09:53:22;;;;;;;7.00;4.87;;;;;;;8.26;100.00;100145.06;6101456;23;20195;-71
2024/02/25 09:55:49;;;;;;;6.53;4.30;;;;;;;8.34;100.00;100149.47;6100631;23;20162;-71
2024/02/25 09:58:17;;;;;;;6.20;4.67;;;;;;;8.44;100.00;100143.09;6101328;23;20655;-71
2024/02/25 10:00:46;;;;;;;5.23;3.93;;;;;;;8.50;100.00;100136.53;6100919;23;20199;-71
2024/02/25 10:03:13;;;;;;;5.30;3.90;;;;;;;8.60;100.00;100136.91;6100900;23;20190;-71
2024/02/25 10:05:40;;;;;;;5.00;3.80;;;;;;;8.70;100.00;100135.75;6100839;23;20273;-71
2024/02/25 10:08:10;;;;;;;7.10;4.30;;;;;;;8.78;100.00;100127.00;6100826;23;20247;-72
2024/02/25 10:10:37;;;;;;;8.33;3.97;;;;;;;8.86;100.00;100124.28;6100952;23;20557;-71
2024/02/25 10:13:05;;;;;;;4.67;3.70;;;;;;;8.92;100.00;100130.91;6100420;23;20211;-71
2024/02/25 10:15:31;;;;;;;9.40;6.40;;;;;;;8.99;100.00;100131.13;6100527;23;20182;-71
2024/02/25 10:17:59;;;;;;;4.80;3.83;;;;;;;9.06;100.00;100125.34;6100454;23;20234;-71
2024/02/25 10:20:26;;;;;;;6.30;3.80;;;;;;;9.15;100.00;100116.25;6100838;23;20578;-71
2024/02/25 10:23:05;;;;;;;6.17;4.63;;;;;;;9.27;100.00;100129.41;6098928;23;20599;-72
2024/02/25 10:25:32;;;;;;;5.97;4.53;;;;;;;9.39;100.00;100116.28;6100468;23;20782;-71
2024/02/25 10:28:12;;;;;;;5.43;4.23;;;;;;;9.51;100.00;100118.91;6100756;23;20174;-72
2024/02/25 10:30:38;;;;;;;4.07;3.53;;;;;;;9.62;100.00;100112.09;6100761;23;20266;-72
2024/02/25 10:33:15;;;;;;;4.57;3.30;;;;;;;9.73;100.00;100105.28;6098081;23;20195;-72
2024/02/25 10:35:41;;;;;;;4.13;3.43;;;;;;;9.83;100.00;100107.47;6098330;23;20618;-72
2024/02/25 10:38:13;;;;;;;5.10;3.50;;;;;;;9.90;100.00;100113.00;6099351;23;20245;-72
2024/02/25 10:40:43;;;;;;;6.07;4.20;;;;;;;9.95;100.00;100111.97;6099838;23;20174;-71
2024/02/25 10:43:12;;;;;;;6.57;5.07;;;;;;;9.97;100.00;100109.78;6099021;23;20277;-71
2024/02/25 10:45:42;;;;;;;3.27;2.80;;;;;;;10.01;100.00;100103.53;6100328;23;20664;-71
2024/02/25 10:48:10;;;;;;;3.53;2.90;;;;;;;10.04;100.00;100097.59;6100409;23;20174;-71
2024/02/25 10:50:38;;;;;;;4.40;3.20;;;;;;;10.08;100.00;100092.41;6100553;23;20177;-71
2024/02/25 10:53:05;;;;;;;6.83;4.37;;;;;;;10.11;100.00;100089.91;6100013;23;20674;-71
2024/02/25 10:55:33;;;;;;;3.63;2.87;;;;;;;10.13;100.00;100094.81;6090819;23;20174;-71
2024/02/25 10:58:01;;;;;;;4.30;2.70;;;;;;;10.19;100.00;100093.50;6099309;23;20162;-71
2024/02/25 11:00:28;;;;;;;6.37;4.97;;;;;;;10.20;100.00;100092.41;6100235;23;20509;-72
2024/02/25 11:02:55;;;;;;;3.60;3.07;;;;;;;10.21;100.00;100092.06;6099021;23;20199;-71
2024/02/25 11:05:22;;;;;;;3.60;2.70;;;;;;;10.23;100.00;100091.72;6099646;23;20177;-71
2024/02/25 11:07:50;;;;;;;3.50;2.60;;;;;;;10.24;100.00;100080.09;6100196;23;20193;-71
2024/02/25 11:10:20;;;;;;;3.60;2.40;;;;;;;10.26;100.00;100073.34;6100707;23;20533;-71
2024/02/25 11:12:49;;;;;;;5.03;3.73;;;;;;;10.29;100.00;100069.25;6100508;23;20197;-71
2024/02/25 11:15:20;;;;;;;3.47;2.87;;;;;;;10.30;100.00;100060.28;6100321;23;20239;-71
2024/02/25 11:17:49;;;;;;;3.37;2.37;;;;;;;10.32;100.00;100043.00;6100216;23;20176;-71
2024/02/25 11:20:22;;;;;;;3.37;2.47;;;;;;;10.34;100.00;100053.19;6100038;23;20197;-71
2024/02/25 11:22:51;;;;;;;3.70;2.40;;;;;;;10.34;100.00;100046.06;6099673;23;20185;-71
2024/02/25 11:25:39;;;;;;;3.20;2.37;;;;;;;10.36;85.66;100041.19;6064310;23;20178;-71
2024/02/25 11:28:09;;;;;;;2.00;1.60;;;;;;;10.38;96.78;100036.38;6099397;23;20510;-71
2024/02/25 11:30:40;;;;;;;0.90;0.90;;;;;;;10.42;89.44;100039.09;6099139;23;20188;-71